sensor_id;sensor_type;location;lat;lon;timestamp;pressure;altitude;pressure_sealevel;temperature;humidity
17649;BME280;8943;51.110;-4.158;2023-05-27T08:31:22;102206.72;;;20.43;39.33
17649;BME280;8943;51.110;-4.158;2023-05-27T08:36:41;102204.50;;;20.57;39.36
17649;BME280;8943;51.110;-4.158;2023-05-27T08:39:09;102198.22;;;20.67;39.30
17649;BME280;8943;51.110;-4.158;2023-05-27T08:41:39;102208.91;;;20.78;39.09
17649;BME280;8943;51.110;-4.158;2023-05-27T08:44:08;102193.38;;;20.80;39.14
17649;BME280;8943;51.110;-4.158;2023-05-27T08:46:49;102192.81;;;20.86;39.27
17649;BME280;8943;51.110;-4.158;2023-05-27T08:49:18;102198.34;;;21.04;39.10
17649;BME280;8943;51.110;-4.158;2023-05-27T08:51:47;102189.91;;;21.07;38.94
17649;BME280;8943;51.110;-4.158;2023-05-27T08:54:20;102183.19;;;21.11;38.94
17649;BME280;8943;51.110;-4.158;2023-05-27T08:56:51;102183.75;;;21.24;38.61
17649;BME280;8943;51.110;-4.158;2023-05-27T08:59:21;102191.72;;;21.36;38.16
17649;BME280;8943;51.110;-4.158;2023-05-27T09:01:51;102182.31;;;21.40;38.19
17649;BME280;8943;51.110;-4.158;2023-05-27T09:04:20;102193.81;;;21.51;37.83
17649;BME280;8943;51.110;-4.158;2023-05-27T09:06:50;102188.34;;;21.61;37.23
17649;BME280;8943;51.110;-4.158;2023-05-27T09:09:19;102188.19;;;21.72;36.96
17649;BME280;8943;51.110;-4.158;2023-05-27T09:11:48;102187.97;;;21.83;36.54
17649;BME280;8943;51.110;-4.158;2023-05-27T09:14:20;102185.81;;;21.87;36.30
17649;BME280;8943;51.110;-4.158;2023-05-27T09:16:48;102190.47;;;21.95;36.11
17649;BME280;8943;51.110;-4.158;2023-05-27T09:19:20;102185.28;;;22.11;35.73
17649;BME280;8943;51.110;-4.158;2023-05-27T09:21:48;102175.34;;;22.20;35.06
17649;BME280;8943;51.110;-4.158;2023-05-27T09:24:19;102175.50;;;22.18;35.02
17649;BME280;8943;51.110;-4.158;2023-05-27T09:26:50;102174.19;;;22.22;34.71
17649;BME280;8943;51.110;-4.158;2023-05-27T09:29:18;102174.44;;;22.29;34.78
17649;BME280;8943;51.110;-4.158;2023-05-27T09:31:46;102172.25;;;22.32;34.24
17649;BME280;8943;51.110;-4.158;2023-05-27T09:34:18;102166.22;;;22.39;33.75
17649;BME280;8943;51.110;-4.158;2023-05-27T09:36:47;102167.16;;;22.47;33.43
17649;BME280;8943;51.110;-4.158;2023-05-27T09:39:17;102171.44;;;22.50;32.89
17649;BME280;8943;51.110;-4.158;2023-05-27T09:41:53;102178.63;;;22.59;32.77
17649;BME280;8943;51.110;-4.158;2023-05-27T09:44:24;102169.31;;;22.61;32.60
17649;BME280;8943;51.110;-4.158;2023-05-27T09:46:56;102173.47;;;22.74;32.52
17649;BME280;8943;51.110;-4.158;2023-05-27T09:49:28;102167.09;;;22.83;32.23
17649;BME280;8943;51.110;-4.158;2023-05-27T09:51:57;102171.50;;;22.94;32.02
17649;BME280;8943;51.110;-4.158;2023-05-27T09:54:27;102173.56;;;23.00;31.96
17649;BME280;8943;51.110;-4.158;2023-05-27T09:56:56;102170.88;;;23.08;32.07
17649;BME280;8943;51.110;-4.158;2023-05-27T09:59:25;102168.53;;;23.13;32.02
17649;BME280;8943;51.110;-4.158;2023-05-27T10:01:54;102167.38;;;23.16;31.13
17649;BME280;8943;51.110;-4.158;2023-05-27T10:04:23;102171.16;;;23.23;31.71
17649;BME280;8943;51.110;-4.158;2023-05-27T10:06:53;102169.50;;;23.30;30.86
17649;BME280;8943;51.110;-4.158;2023-05-27T10:09:22;102161.19;;;23.31;30.75
17649;BME280;8943;51.110;-4.158;2023-05-27T10:11:50;102160.34;;;23.31;30.80
17649;BME280;8943;51.110;-4.158;2023-05-27T10:14:19;102168.38;;;23.41;30.82
17649;BME280;8943;51.110;-4.158;2023-05-27T10:16:51;102159.84;;;23.35;30.60
17649;BME280;8943;51.110;-4.158;2023-05-27T10:19:21;102159.56;;;23.47;30.76
17649;BME280;8943;51.110;-4.158;2023-05-27T10:21:53;102154.00;;;23.56;30.58
17649;BME280;8943;51.110;-4.158;2023-05-27T10:24:30;102152.66;;;23.60;30.42
17649;BME280;8943;51.110;-4.158;2023-05-27T10:27:00;102153.09;;;23.74;29.76
17649;BME280;8943;51.110;-4.158;2023-05-27T10:29:35;102146.81;;;23.81;29.78
17649;BME280;8943;51.110;-4.158;2023-05-27T10:32:04;102144.13;;;23.89;29.80
17649;BME280;8943;51.110;-4.158;2023-05-27T10:34:37;102146.88;;;23.98;29.56
17649;BME280;8943;51.110;-4.158;2023-05-27T10:37:12;102134.31;;;24.13;29.50
17649;BME280;8943;51.110;-4.158;2023-05-27T10:40:11;102127.34;;;24.19;29.00
17649;BME280;8943;51.110;-4.158;2023-05-27T10:42:41;102128.38;;;24.26;29.06
17649;BME280;8943;51.110;-4.158;2023-05-27T10:45:10;102127.00;;;24.30;29.05
17649;BME280;8943;51.110;-4.158;2023-05-27T10:47:49;102120.44;;;24.40;28.72
17649;BME280;8943;51.110;-4.158;2023-05-27T10:50:17;102116.84;;;24.48;28.78
17649;BME280;8943;51.110;-4.158;2023-05-27T10:52:48;102115.63;;;24.59;28.50
17649;BME280;8943;51.110;-4.158;2023-05-27T10:55:20;102109.16;;;24.68;28.61
17649;BME280;8943;51.110;-4.158;2023-05-27T10:57:48;102104.22;;;24.80;28.26
17649;BME280;8943;51.110;-4.158;2023-05-27T11:00:18;102106.06;;;24.87;28.01
17649;BME280;8943;51.110;-4.158;2023-05-27T11:02:47;102102.50;;;24.95;27.65
17649;BME280;8943;51.110;-4.158;2023-05-27T11:05:18;102083.19;;;25.05;27.78
17649;BME280;8943;51.110;-4.158;2023-05-27T11:07:49;102088.31;;;25.16;27.82
17649;BME280;8943;51.110;-4.158;2023-05-27T11:10:17;102087.06;;;25.27;27.75
17649;BME280;8943;51.110;-4.158;2023-05-27T11:12:45;102088.41;;;25.31;27.51
17649;BME280;8943;51.110;-4.158;2023-05-27T11:15:15;102081.72;;;25.41;27.31
17649;BME280;8943;51.110;-4.158;2023-05-27T11:17:43;102078.13;;;25.49;27.04
17649;BME280;8943;51.110;-4.158;2023-05-27T11:20:11;102074.31;;;25.58;26.61
17649;BME280;8943;51.110;-4.158;2023-05-27T11:22:40;102068.78;;;25.66;26.47
17649;BME280;8943;51.110;-4.158;2023-05-27T11:25:09;102066.38;;;25.72;26.13
17649;BME280;8943;51.110;-4.158;2023-05-27T11:27:39;102062.06;;;25.85;25.74
17649;BME280;8943;51.110;-4.158;2023-05-27T11:30:10;102078.06;;;25.97;25.55
17649;BME280;8943;51.110;-4.158;2023-05-27T11:32:40;102066.19;;;26.04;25.22
17649;BME280;8943;51.110;-4.158;2023-05-27T11:35:14;102065.00;;;26.07;25.15
17649;BME280;8943;51.110;-4.158;2023-05-27T11:37:45;102066.06;;;26.20;25.03
17649;BME280;8943;51.110;-4.158;2023-05-27T11:40:16;102058.00;;;26.27;24.65
17649;BME280;8943;51.110;-4.158;2023-05-27T11:42:45;102045.97;;;26.36;24.80
17649;BME280;8943;51.110;-4.158;2023-05-27T11:45:17;102044.06;;;26.45;24.62
17649;BME280;8943;51.110;-4.158;2023-05-27T11:47:46;102048.56;;;26.53;24.96
17649;BME280;8943;51.110;-4.158;2023-05-27T11:50:18;102055.00;;;26.60;24.46
17649;BME280;8943;51.110;-4.158;2023-05-27T11:52:52;102043.97;;;26.68;23.98
17649;BME280;8943;51.110;-4.158;2023-05-27T11:55:22;102040.41;;;26.67;23.83
17649;BME280;8943;51.110;-4.158;2023-05-27T11:57:50;102033.31;;;26.73;23.54
17649;BME280;8943;51.110;-4.158;2023-05-27T12:00:19;102037.59;;;26.76;24.10
17649;BME280;8943;51.110;-4.158;2023-05-27T12:02:48;102020.91;;;26.85;23.74
17649;BME280;8943;51.110;-4.158;2023-05-27T12:05:16;102024.75;;;26.91;24.03
17649;BME280;8943;51.110;-4.158;2023-05-27T12:08:06;102020.91;;;27.00;24.62
17649;BME280;8943;51.110;-4.158;2023-05-27T12:10:37;102024.56;;;27.07;25.38
17649;BME280;8943;51.110;-4.158;2023-05-27T12:13:05;102029.69;;;27.10;25.41
17649;BME280;8943;51.110;-4.158;2023-05-27T12:15:36;102018.53;;;27.12;25.66
17649;BME280;8943;51.110;-4.158;2023-05-27T12:18:05;102023.66;;;27.15;26.10
17649;BME280;8943;51.110;-4.158;2023-05-27T12:25:54;102009.75;;;27.16;25.86
17649;BME280;8943;51.110;-4.158;2023-05-27T12:29:11;102021.28;;;27.12;26.17
17649;BME280;8943;51.110;-4.158;2023-05-27T12:32:02;102013.75;;;27.14;25.74
17649;BME280;8943;51.110;-4.158;2023-05-27T12:35:21;102001.81;;;27.07;25.84
17649;BME280;8943;51.110;-4.158;2023-05-27T12:38:27;102005.25;;;27.09;26.50
17649;BME280;8943;51.110;-4.158;2023-05-27T13:06:14;101994.16;;;27.68;25.20
17649;BME280;8943;51.110;-4.158;2023-05-27T13:11:45;101995.66;;;28.97;22.75
17649;BME280;8943;51.110;-4.158;2023-05-27T13:14:46;101998.19;;;29.54;21.87
17649;BME280;8943;51.110;-4.158;2023-05-27T13:30:14;101987.25;;;32.08;17.22
17649;BME280;8943;51.110;-4.158;2023-05-27T13:50:47;101987.72;;;34.82;11.46
17649;BME280;8943;51.110;-4.158;2023-05-27T13:53:20;101987.63;;;35.17;11.99
17649;BME280;8943;51.110;-4.158;2023-05-27T13:55:54;101982.50;;;35.66;11.78
17649;BME280;8943;51.110;-4.158;2023-05-27T13:58:47;101974.81;;;36.19;11.49
17649;BME280;8943;51.110;-4.158;2023-05-27T14:01:15;101979.44;;;36.69;11.37
17649;BME280;8943;51.110;-4.158;2023-05-27T14:03:49;101981.47;;;37.17;10.64
17649;BME280;8943;51.110;-4.158;2023-05-27T14:13:07;101973.00;;;37.56;9.48
17649;BME280;8943;51.110;-4.158;2023-05-27T14:15:37;101974.81;;;37.72;9.57
17649;BME280;8943;51.110;-4.158;2023-05-27T14:18:33;101968.66;;;37.92;9.55
17649;BME280;8943;51.110;-4.158;2023-05-27T14:21:02;101971.69;;;38.28;10.13
17649;BME280;8943;51.110;-4.158;2023-05-27T14:23:30;101971.63;;;38.65;9.89
17649;BME280;8943;51.110;-4.158;2023-05-27T14:26:07;101977.09;;;38.97;9.28
17649;BME280;8943;51.110;-4.158;2023-05-27T14:43:11;101961.22;;;39.08;6.93
17649;BME280;8943;51.110;-4.158;2023-05-27T14:46:23;101956.63;;;39.44;7.20
17649;BME280;8943;51.110;-4.158;2023-05-27T14:48:57;101958.88;;;39.68;7.15
17649;BME280;8943;51.110;-4.158;2023-05-27T14:51:32;101954.13;;;39.88;6.64
17649;BME280;8943;51.110;-4.158;2023-05-27T14:54:08;101952.19;;;40.09;6.62
17649;BME280;8943;51.110;-4.158;2023-05-27T14:56:37;101956.91;;;40.14;6.30
17649;BME280;8943;51.110;-4.158;2023-05-27T14:59:07;101955.78;;;40.20;5.94
17649;BME280;8943;51.110;-4.158;2023-05-27T15:01:35;101947.31;;;40.46;6.61
17649;BME280;8943;51.110;-4.158;2023-05-27T15:04:04;101947.50;;;40.80;6.35
17649;BME280;8943;51.110;-4.158;2023-05-27T15:06:32;101934.47;;;41.20;7.10
17649;BME280;8943;51.110;-4.158;2023-05-27T15:09:02;101936.34;;;41.68;6.88
17649;BME280;8943;51.110;-4.158;2023-05-27T15:11:30;101933.47;;;42.08;6.17
17649;BME280;8943;51.110;-4.158;2023-05-27T15:14:33;101938.88;;;42.28;6.11
17649;BME280;8943;51.110;-4.158;2023-05-27T15:17:02;101942.03;;;42.69;6.15
17649;BME280;8943;51.110;-4.158;2023-05-27T15:19:31;101949.19;;;43.05;6.29
17649;BME280;8943;51.110;-4.158;2023-05-27T15:22:00;101941.56;;;43.43;5.66
17649;BME280;8943;51.110;-4.158;2023-05-27T15:24:28;101941.25;;;43.63;5.05
17649;BME280;8943;51.110;-4.158;2023-05-27T15:26:56;101943.19;;;43.63;4.62
17649;BME280;8943;51.110;-4.158;2023-05-27T15:29:28;101937.06;;;43.61;4.86
17649;BME280;8943;51.110;-4.158;2023-05-27T15:32:06;101932.28;;;43.61;4.32
17649;BME280;8943;51.110;-4.158;2023-05-27T15:34:56;101924.75;;;43.43;4.12
17649;BME280;8943;51.110;-4.158;2023-05-27T15:37:42;101924.88;;;43.14;4.86
17649;BME280;8943;51.110;-4.158;2023-05-27T15:40:12;101926.03;;;43.13;4.91
17649;BME280;8943;51.110;-4.158;2023-05-27T15:43:02;101927.84;;;43.04;4.89
17649;BME280;8943;51.110;-4.158;2023-05-27T15:45:30;101927.53;;;43.24;5.31
17649;BME280;8943;51.110;-4.158;2023-05-27T15:48:02;101926.25;;;43.54;5.48
17649;BME280;8943;51.110;-4.158;2023-05-27T15:50:33;101924.13;;;43.79;5.39
17649;BME280;8943;51.110;-4.158;2023-05-27T15:53:02;101929.28;;;43.90;5.61
17649;BME280;8943;51.110;-4.158;2023-05-27T15:55:40;101919.09;;;43.94;5.88
17649;BME280;8943;51.110;-4.158;2023-05-27T15:58:52;101922.09;;;43.84;6.37
17649;BME280;8943;51.110;-4.158;2023-05-27T16:02:16;101921.56;;;43.31;6.65
17649;BME280;8943;51.110;-4.158;2023-05-27T16:05:42;101910.84;;;42.52;6.94
17649;BME280;8943;51.110;-4.158;2023-05-27T16:08:30;101904.78;;;41.92;7.68
17649;BME280;8943;51.110;-4.158;2023-05-27T16:11:12;101910.66;;;41.61;7.93
17649;BME280;8943;51.110;-4.158;2023-05-27T16:13:47;101922.47;;;41.53;8.12
17649;BME280;8943;51.110;-4.158;2023-05-27T16:16:19;101907.31;;;41.59;8.40
17649;BME280;8943;51.110;-4.158;2023-05-27T16:18:54;101915.00;;;41.73;8.40
17649;BME280;8943;51.110;-4.158;2023-05-27T16:21:42;101911.53;;;41.91;8.54
17649;BME280;8943;51.110;-4.158;2023-05-27T16:24:16;101911.28;;;42.11;8.58
17649;BME280;8943;51.110;-4.158;2023-05-27T16:27:11;101904.78;;;42.21;8.11
17649;BME280;8943;51.110;-4.158;2023-05-27T16:30:10;101909.78;;;42.24;8.35
17649;BME280;8943;51.110;-4.158;2023-05-27T16:33:04;101908.50;;;42.11;7.82
17649;BME280;8943;51.110;-4.158;2023-05-27T16:35:38;101905.09;;;41.90;8.02
17649;BME280;8943;51.110;-4.158;2023-05-27T16:38:11;101907.94;;;41.85;8.24
17649;BME280;8943;51.110;-4.158;2023-05-27T16:40:40;101901.44;;;41.90;8.30
17649;BME280;8943;51.110;-4.158;2023-05-27T16:43:09;101896.56;;;42.01;8.10
17649;BME280;8943;51.110;-4.158;2023-05-27T16:45:56;101885.72;;;41.94;8.38
17649;BME280;8943;51.110;-4.158;2023-05-27T16:48:24;101884.53;;;42.00;8.34
17649;BME280;8943;51.110;-4.158;2023-05-27T16:50:53;101882.94;;;41.94;8.57
17649;BME280;8943;51.110;-4.158;2023-05-27T16:53:25;101883.75;;;41.95;8.54
17649;BME280;8943;51.110;-4.158;2023-05-27T16:56:06;101887.75;;;41.88;8.49
17649;BME280;8943;51.110;-4.158;2023-05-27T16:58:50;101886.44;;;41.76;8.64
17649;BME280;8943;51.110;-4.158;2023-05-27T17:04:30;101885.19;;;41.24;8.46
17649;BME280;8943;51.110;-4.158;2023-05-27T17:12:37;101873.94;;;40.30;8.49
17649;BME280;8943;51.110;-4.158;2023-05-27T17:17:51;101880.16;;;39.81;8.98
17649;BME280;8943;51.110;-4.158;2023-05-27T17:20:19;101872.34;;;39.52;9.42
17649;BME280;8943;51.110;-4.158;2023-05-27T17:22:51;101870.13;;;39.34;9.70
17649;BME280;8943;51.110;-4.158;2023-05-27T17:25:20;101877.09;;;39.31;9.42
17649;BME280;8943;51.110;-4.158;2023-05-27T17:27:50;101875.69;;;39.24;9.45
17649;BME280;8943;51.110;-4.158;2023-05-27T17:30:20;101872.31;;;39.06;9.67
17649;BME280;8943;51.110;-4.158;2023-05-27T17:32:48;101881.19;;;38.93;9.96
17649;BME280;8943;51.110;-4.158;2023-05-27T17:35:19;101868.28;;;38.72;9.79
17649;BME280;8943;51.110;-4.158;2023-05-27T17:37:49;101876.59;;;38.51;9.68
17649;BME280;8943;51.110;-4.158;2023-05-27T17:40:17;101872.56;;;38.27;10.42
17649;BME280;8943;51.110;-4.158;2023-05-27T17:42:52;101866.31;;;38.09;10.21
17649;BME280;8943;51.110;-4.158;2023-05-27T17:45:24;101866.22;;;37.94;10.27
17649;BME280;8943;51.110;-4.158;2023-05-27T17:47:57;101863.88;;;37.81;10.56
17649;BME280;8943;51.110;-4.158;2023-05-27T17:50:28;101867.78;;;37.80;10.50
17649;BME280;8943;51.110;-4.158;2023-05-27T17:52:58;101867.47;;;37.76;10.91
17649;BME280;8943;51.110;-4.158;2023-05-27T17:55:26;101869.09;;;37.72;10.76
17649;BME280;8943;51.110;-4.158;2023-05-27T17:57:57;101871.69;;;37.47;10.54
17649;BME280;8943;51.110;-4.158;2023-05-27T18:00:27;101868.84;;;37.09;11.17
17649;BME280;8943;51.110;-4.158;2023-05-27T18:02:55;101870.59;;;36.72;11.48
17649;BME280;8943;51.110;-4.158;2023-05-27T18:05:24;101872.31;;;36.34;11.81
17649;BME280;8943;51.110;-4.158;2023-05-27T18:07:52;101876.34;;;36.04;11.91
17649;BME280;8943;51.110;-4.158;2023-05-27T18:10:24;101869.56;;;35.78;11.97
17649;BME280;8943;51.110;-4.158;2023-05-27T18:12:54;101866.03;;;35.66;12.31
17649;BME280;8943;51.110;-4.158;2023-05-27T18:15:25;101872.59;;;35.60;12.13
17649;BME280;8943;51.110;-4.158;2023-05-27T18:17:53;101868.72;;;35.61;12.16
17649;BME280;8943;51.110;-4.158;2023-05-27T18:20:21;101865.19;;;35.66;12.10
17649;BME280;8943;51.110;-4.158;2023-05-27T18:22:50;101858.47;;;35.62;11.84
17649;BME280;8943;51.110;-4.158;2023-05-27T18:25:18;101866.63;;;35.51;11.79
17649;BME280;8943;51.110;-4.158;2023-05-27T18:27:48;101868.44;;;35.29;11.46
17649;BME280;8943;51.110;-4.158;2023-05-27T18:30:19;101856.38;;;35.06;11.38
17649;BME280;8943;51.110;-4.158;2023-05-27T18:32:50;101861.00;;;34.89;11.73
17649;BME280;8943;51.110;-4.158;2023-05-27T18:35:19;101865.75;;;34.77;11.92
17649;BME280;8943;51.110;-4.158;2023-05-27T18:37:58;101866.03;;;34.64;11.99
17649;BME280;8943;51.110;-4.158;2023-05-27T18:40:28;101862.38;;;34.46;12.24
17649;BME280;8943;51.110;-4.158;2023-05-27T18:43:08;101870.06;;;34.21;12.36
17649;BME280;8943;51.110;-4.158;2023-05-27T18:45:50;101874.41;;;33.93;12.70
17649;BME280;8943;51.110;-4.158;2023-05-27T18:48:21;101868.13;;;33.74;13.10
17649;BME280;8943;51.110;-4.158;2023-05-27T18:50:59;101869.06;;;33.56;13.29
17649;BME280;8943;51.110;-4.158;2023-05-27T18:53:34;101874.50;;;33.33;14.10
17649;BME280;8943;51.110;-4.158;2023-05-27T18:56:07;101863.75;;;33.13;13.86
17649;BME280;8943;51.110;-4.158;2023-05-27T18:58:56;101870.41;;;32.94;14.25
17649;BME280;8943;51.110;-4.158;2023-05-27T19:01:28;101872.72;;;32.78;14.25
17649;BME280;8943;51.110;-4.158;2023-05-27T19:03:58;101869.28;;;32.65;14.49
17649;BME280;8943;51.110;-4.158;2023-05-27T19:06:28;101863.72;;;32.53;14.45
17649;BME280;8943;51.110;-4.158;2023-05-27T19:08:56;101872.78;;;32.42;15.04
17649;BME280;8943;51.110;-4.158;2023-05-27T19:11:26;101872.44;;;32.32;15.16
17649;BME280;8943;51.110;-4.158;2023-05-27T19:13:57;101873.09;;;32.09;15.09
17649;BME280;8943;51.110;-4.158;2023-05-27T19:16:27;101871.69;;;31.74;15.73
17649;BME280;8943;51.110;-4.158;2023-05-27T19:18:56;101857.09;;;31.49;15.90
17649;BME280;8943;51.110;-4.158;2023-05-27T19:21:27;101863.56;;;31.23;16.12
17649;BME280;8943;51.110;-4.158;2023-05-27T19:23:56;101871.13;;;31.02;16.27
17649;BME280;8943;51.110;-4.158;2023-05-27T19:26:25;101866.19;;;30.80;16.36
17649;BME280;8943;51.110;-4.158;2023-05-27T19:28:54;101871.53;;;30.61;16.68
17649;BME280;8943;51.110;-4.158;2023-05-27T19:31:23;101861.44;;;30.35;17.06
17649;BME280;8943;51.110;-4.158;2023-05-27T19:33:52;101865.31;;;30.21;17.59
17649;BME280;8943;51.110;-4.158;2023-05-27T19:36:20;101869.34;;;29.92;17.64
17649;BME280;8943;51.110;-4.158;2023-05-27T19:38:50;101862.56;;;29.48;17.95
17649;BME280;8943;51.110;-4.158;2023-05-27T19:41:18;101863.09;;;29.04;18.19
17649;BME280;8943;51.110;-4.158;2023-05-27T19:43:46;101864.97;;;28.48;18.48
17649;BME280;8943;51.110;-4.158;2023-05-27T19:46:15;101867.78;;;27.92;19.33
17649;BME280;8943;51.110;-4.158;2023-05-27T19:48:43;101869.63;;;27.42;19.79
17649;BME280;8943;51.110;-4.158;2023-05-27T19:51:12;101867.78;;;26.92;20.32
17649;BME280;8943;51.110;-4.158;2023-05-27T19:53:41;101864.66;;;26.44;21.06
17649;BME280;8943;51.110;-4.158;2023-05-27T19:56:11;101861.88;;;26.00;21.80
17649;BME280;8943;51.110;-4.158;2023-05-27T19:58:39;101864.59;;;25.62;22.17
17649;BME280;8943;51.110;-4.158;2023-05-27T20:01:08;101865.91;;;25.28;22.60
17649;BME280;8943;51.110;-4.158;2023-05-27T20:03:37;101862.13;;;24.98;22.69
17649;BME280;8943;51.110;-4.158;2023-05-27T20:06:06;101870.13;;;24.69;23.47
17649;BME280;8943;51.110;-4.158;2023-05-27T20:08:35;101871.78;;;24.38;23.93
17649;BME280;8943;51.110;-4.158;2023-05-27T20:11:03;101867.09;;;24.08;24.45
17649;BME280;8943;51.110;-4.158;2023-05-27T20:13:33;101866.78;;;23.78;25.20
17649;BME280;8943;51.110;-4.158;2023-05-27T20:16:01;101871.53;;;23.52;25.40
17649;BME280;8943;51.110;-4.158;2023-05-27T20:18:30;101869.81;;;23.26;25.97
17649;BME280;8943;51.110;-4.158;2023-05-27T20:20:59;101873.81;;;22.98;26.32
17649;BME280;8943;51.110;-4.158;2023-05-27T20:23:27;101871.69;;;22.75;26.62
17649;BME280;8943;51.110;-4.158;2023-05-27T20:25:55;101871.97;;;22.56;27.05
17649;BME280;8943;51.110;-4.158;2023-05-27T20:28:23;101881.69;;;22.32;27.59
17649;BME280;8943;51.110;-4.158;2023-05-27T20:30:54;101880.41;;;22.19;27.78
17649;BME280;8943;51.110;-4.158;2023-05-27T20:33:22;101875.16;;;21.99;28.07
17649;BME280;8943;51.110;-4.158;2023-05-27T20:35:51;101879.66;;;21.82;28.51
17649;BME280;8943;51.110;-4.158;2023-05-27T20:38:19;101879.66;;;21.65;28.85
17649;BME280;8943;51.110;-4.158;2023-05-27T20:40:47;101883.78;;;21.51;29.15
17649;BME280;8943;51.110;-4.158;2023-05-27T20:43:16;101884.31;;;21.37;29.19
17649;BME280;8943;51.110;-4.158;2023-05-27T20:45:44;101873.84;;;21.24;29.54
17649;BME280;8943;51.110;-4.158;2023-05-27T20:48:15;101874.78;;;21.15;29.54
17649;BME280;8943;51.110;-4.158;2023-05-27T20:50:43;101876.81;;;21.03;29.83
17649;BME280;8943;51.110;-4.158;2023-05-27T20:53:13;101877.78;;;20.94;30.22
17649;BME280;8943;51.110;-4.158;2023-05-27T20:55:42;101874.56;;;20.80;30.79
17649;BME280;8943;51.110;-4.158;2023-05-27T20:58:11;101877.47;;;20.69;30.74
17649;BME280;8943;51.110;-4.158;2023-05-27T21:00:40;101881.38;;;20.57;30.98
17649;BME280;8943;51.110;-4.158;2023-05-27T21:03:08;101877.13;;;20.45;31.35
17649;BME280;8943;51.110;-4.158;2023-05-27T21:05:39;101872.06;;;20.32;31.70
17649;BME280;8943;51.110;-4.158;2023-05-27T21:08:07;101873.50;;;20.26;31.81
17649;BME280;8943;51.110;-4.158;2023-05-27T21:10:35;101878.63;;;20.20;32.12
17649;BME280;8943;51.110;-4.158;2023-05-27T21:13:06;101866.53;;;20.14;32.00
17649;BME280;8943;51.110;-4.158;2023-05-27T21:15:35;101875.22;;;20.18;32.11
17649;BME280;8943;51.110;-4.158;2023-05-27T21:18:03;101878.53;;;20.12;32.11
17649;BME280;8943;51.110;-4.158;2023-05-27T21:20:35;101878.81;;;20.09;32.16
17649;BME280;8943;51.110;-4.158;2023-05-27T21:23:07;101884.38;;;20.07;32.15
17649;BME280;8943;51.110;-4.158;2023-05-27T21:25:35;101882.13;;;20.02;32.26
17649;BME280;8943;51.110;-4.158;2023-05-27T21:28:04;101888.38;;;20.03;32.30
17649;BME280;8943;51.110;-4.158;2023-05-27T21:30:32;101886.94;;;19.99;32.29
17649;BME280;8943;51.110;-4.158;2023-05-27T21:33:00;101880.69;;;19.98;32.20
17649;BME280;8943;51.110;-4.158;2023-05-27T21:35:29;101885.53;;;19.95;32.46
17649;BME280;8943;51.110;-4.158;2023-05-27T21:37:57;101885.28;;;19.88;32.69
17649;BME280;8943;51.110;-4.158;2023-05-27T21:40:30;101883.28;;;19.80;32.94
17649;BME280;8943;51.110;-4.158;2023-05-27T21:42:58;101881.88;;;19.76;32.91
17649;BME280;8943;51.110;-4.158;2023-05-27T21:45:26;101878.31;;;19.66;33.24
17649;BME280;8943;51.110;-4.158;2023-05-27T21:47:55;101886.00;;;19.61;33.28
17649;BME280;8943;51.110;-4.158;2023-05-27T21:50:23;101884.28;;;19.50;33.66
17649;BME280;8943;51.110;-4.158;2023-05-27T21:52:51;101885.13;;;19.41;33.68
17649;BME280;8943;51.110;-4.158;2023-05-27T21:55:19;101889.56;;;19.33;33.80
17649;BME280;8943;51.110;-4.158;2023-05-27T21:57:49;101874.59;;;19.28;33.82
17649;BME280;8943;51.110;-4.158;2023-05-27T22:00:17;101877.16;;;19.20;34.16
17649;BME280;8943;51.110;-4.158;2023-05-27T22:02:45;101885.53;;;19.17;34.25
17649;BME280;8943;51.110;-4.158;2023-05-27T22:05:13;101885.09;;;19.12;34.16
17649;BME280;8943;51.110;-4.158;2023-05-27T22:07:42;101883.53;;;19.10;34.27
17649;BME280;8943;51.110;-4.158;2023-05-27T22:10:10;101884.09;;;19.03;33.96
17649;BME280;8943;51.110;-4.158;2023-05-27T22:12:38;101885.22;;;19.01;34.32
17649;BME280;8943;51.110;-4.158;2023-05-27T22:15:08;101886.50;;;18.97;34.41
17649;BME280;8943;51.110;-4.158;2023-05-27T22:17:37;101883.34;;;18.92;34.64
17649;BME280;8943;51.110;-4.158;2023-05-27T22:20:06;101885.47;;;18.88;34.56
17649;BME280;8943;51.110;-4.158;2023-05-27T22:22:34;101883.47;;;18.81;34.64
17649;BME280;8943;51.110;-4.158;2023-05-27T22:25:03;101883.03;;;18.75;35.20
17649;BME280;8943;51.110;-4.158;2023-05-27T22:27:32;101884.69;;;18.67;35.16
17649;BME280;8943;51.110;-4.158;2023-05-27T22:30:00;101881.09;;;18.57;35.16
17649;BME280;8943;51.110;-4.158;2023-05-27T22:32:31;101874.41;;;18.51;35.38
17649;BME280;8943;51.110;-4.158;2023-05-27T22:34:59;101864.84;;;18.47;35.49
17649;BME280;8943;51.110;-4.158;2023-05-27T22:37:27;101870.53;;;18.44;35.67
17649;BME280;8943;51.110;-4.158;2023-05-27T22:39:58;101866.53;;;18.38;35.94
17649;BME280;8943;51.110;-4.158;2023-05-27T22:42:26;101857.38;;;18.30;35.84
17649;BME280;8943;51.110;-4.158;2023-05-27T22:44:58;101854.97;;;18.26;36.14
17649;BME280;8943;51.110;-4.158;2023-05-27T22:47:26;101857.94;;;18.23;36.36
17649;BME280;8943;51.110;-4.158;2023-05-27T22:49:56;101860.94;;;18.20;36.62
17649;BME280;8943;51.110;-4.158;2023-05-27T22:52:24;101858.47;;;18.17;36.61
17649;BME280;8943;51.110;-4.158;2023-05-27T22:54:52;101851.63;;;18.13;36.54
17649;BME280;8943;51.110;-4.158;2023-05-27T22:57:21;101853.88;;;18.08;36.98
17649;BME280;8943;51.110;-4.158;2023-05-27T22:59:50;101854.16;;;18.05;36.93
17649;BME280;8943;51.110;-4.158;2023-05-27T23:02:18;101854.53;;;18.00;36.83
17649;BME280;8943;51.110;-4.158;2023-05-27T23:04:46;101854.69;;;17.99;37.28
17649;BME280;8943;51.110;-4.158;2023-05-27T23:07:18;101851.53;;;17.94;37.34
17649;BME280;8943;51.110;-4.158;2023-05-27T23:09:46;101846.69;;;17.88;37.61
17649;BME280;8943;51.110;-4.158;2023-05-27T23:12:14;101846.63;;;17.78;37.83
17649;BME280;8943;51.110;-4.158;2023-05-27T23:14:42;101849.72;;;17.73;37.77
17649;BME280;8943;51.110;-4.158;2023-05-27T23:17:10;101840.00;;;17.71;37.76
17649;BME280;8943;51.110;-4.158;2023-05-27T23:19:39;101851.56;;;17.73;37.83
17649;BME280;8943;51.110;-4.158;2023-05-27T23:22:07;101851.66;;;17.71;38.02
17649;BME280;8943;51.110;-4.158;2023-05-27T23:24:37;101858.16;;;17.69;37.95
17649;BME280;8943;51.110;-4.158;2023-05-27T23:27:05;101852.16;;;17.65;38.15
17649;BME280;8943;51.110;-4.158;2023-05-27T23:29:36;101853.28;;;17.63;37.96